Time;durP1;ratioP1;P1;durP2;ratioP2;P2;SDS_P1;SDS_P2;PMS_P1;PMS_P2;Temp;Humidity;BMP_temperature;BMP_pressure;BME280_temperature;BME280_humidity;BME280_pressure;Samples;Min_cycle;Max_cycle;Signal;HPM_P1;HPM_P2
2022/12/24 00:01:34;;;;;;;77.53;52.47;;;17.00;73.40;;;;;;4913342;28;90438;-49
2022/12/24 00:04:00;;;;;;;76.97;52.22;;;17.00;73.40;;;;;;4920198;28;92090;-49
2022/12/24 00:06:25;;;;;;;76.35;52.20;;;17.00;73.20;;;;;;4926990;28;91613;-50
2022/12/24 00:08:51;;;;;;;82.07;52.63;;;17.00;73.30;;;;;;4925782;28;92473;-50
2022/12/24 00:11:18;;;;;;;77.53;52.42;;;16.90;73.20;;;;;;4918802;28;89756;-48
2022/12/24 00:13:43;;;;;;;81.43;52.90;;;16.90;73.90;;;;;;4919005;28;94920;-46
2022/12/24 00:16:09;;;;;;;77.53;52.83;;;16.90;73.20;;;;;;4921367;28;92934;-50
2022/12/24 00:18:35;;;;;;;78.07;52.63;;;16.90;73.20;;;;;;4926845;28;91276;-47
2022/12/24 00:21:02;;;;;;;77.25;51.65;;;16.90;73.20;;;;;;4919447;28;90493;-47
2022/12/24 00:23:28;;;;;;;79.18;52.35;;;16.90;73.20;;;;;;4924386;28;90607;-50
2022/12/24 00:25:55;;;;;;;75.32;52.05;;;16.90;73.00;;;;;;4937501;28;90869;-51
2022/12/24 00:28:20;;;;;;;79.22;52.00;;;16.90;73.10;;;;;;4924216;28;90399;-45
2022/12/24 00:30:46;;;;;;;78.70;52.78;;;16.90;73.10;;;;;;4918692;28;90528;-47
2022/12/24 00:33:12;;;;;;;78.05;52.90;;;16.90;73.10;;;;;;4920654;28;89748;-49
2022/12/24 00:35:39;;;;;;;76.35;51.80;;;16.90;73.10;;;;;;4930834;28;90556;-49
2022/12/24 00:38:05;;;;;;;79.45;51.85;;;16.90;73.10;;;;;;4919809;28;96289;-49
2022/12/24 00:40:31;;;;;;;77.57;52.45;;;16.90;73.00;;;;;;4921645;28;91140;-50
2022/12/24 00:42:57;;;;;;;78.97;52.05;;;16.90;72.90;;;;;;4932229;28;90745;-46
2022/12/24 00:45:23;;;;;;;76.00;51.55;;;16.90;72.90;;;;;;4925480;28;90857;-49
2022/12/24 00:47:49;;;;;;;78.72;52.33;;;16.90;73.00;;;;;;4923067;28;92307;-47
2022/12/24 00:50:15;;;;;;;75.60;52.53;;;16.90;73.70;;;;;;4929694;28;92523;-46
2022/12/24 00:52:41;;;;;;;74.45;51.88;;;16.80;72.80;;;;;;4929890;28;89601;-50
2022/12/24 00:55:07;;;;;;;77.65;52.10;;;16.80;72.90;;;;;;4930845;28;94177;-46
2022/12/24 00:57:33;;;;;;;77.03;52.08;;;16.90;72.90;;;;;;4926611;28;89876;-50
2022/12/24 00:59:59;;;;;;;74.70;51.90;;;16.80;72.80;;;;;;4926862;28;89766;-51
2022/12/24 01:02:24;;;;;;;74.22;52.28;;;16.80;72.70;;;;;;4927811;28;90884;-48
2022/12/24 01:07:35;;;;;;;79.40;52.00;;;16.80;72.80;;;;;;4924711;28;90448;-46
2022/12/24 01:10:01;;;;;;;78.25;52.20;;;16.80;72.80;;;;;;4923140;28;93100;-48
2022/12/24 01:12:27;;;;;;;75.50;51.63;;;16.80;72.70;;;;;;4933714;28;96556;-46
2022/12/24 01:14:52;;;;;;;76.82;51.53;;;16.80;72.80;;;;;;4917847;28;90247;-51
2022/12/24 01:17:18;;;;;;;75.60;51.90;;;16.80;72.80;;;;;;4916768;28;91922;-48
2022/12/24 01:19:44;;;;;;;78.53;52.55;;;16.80;72.90;;;;;;4927564;28;96018;-49
2022/12/24 01:22:09;;;;;;;75.40;51.53;;;16.80;72.80;;;;;;4938263;28;89176;-49
2022/12/24 01:24:35;;;;;;;77.18;52.05;;;16.80;72.80;;;;;;4917981;28;90990;-49
2022/12/24 01:27:01;;;;;;;76.28;52.00;;;16.80;72.80;;;;;;4924475;28;91909;-47
2022/12/24 01:29:26;;;;;;;74.72;51.40;;;16.80;72.80;;;;;;4929880;28;93996;-46
2022/12/24 01:31:52;;;;;;;77.97;51.97;;;16.70;72.80;;;;;;4926032;28;91739;-51
2022/12/24 01:34:18;;;;;;;77.97;51.60;;;16.70;72.80;;;;;;4924438;28;90737;-49
2022/12/24 01:36:43;;;;;;;77.13;52.17;;;16.70;72.80;;;;;;4925870;28;89882;-50
2022/12/24 01:39:09;;;;;;;77.25;51.75;;;16.70;72.80;;;;;;4925178;28;93732;-47
2022/12/24 01:44:25;;;;;;;74.93;51.78;;;16.70;72.80;;;;;;4926786;28;94802;-48
2022/12/24 01:47:01;;;;;;;76.35;52.00;;;16.70;72.90;;;;;;4928991;28;89962;-45
2022/12/24 01:49:27;;;;;;;76.47;51.97;;;16.70;72.90;;;;;;4926320;28;93550;-52
2022/12/24 01:51:59;;;;;;;75.47;51.95;;;16.70;72.80;;;;;;4930369;28;90359;-47
2022/12/24 01:54:33;;;;;;;76.72;51.35;;;16.70;72.80;;;;;;4924049;28;96602;-48
2022/12/24 01:57:14;;;;;;;79.28;52.40;;;16.70;72.90;;;;;;4920854;28;96744;-49
2022/12/24 01:59:45;;;;;;;76.50;51.65;;;16.70;72.80;;;;;;4933626;28;91099;-46
2022/12/24 02:02:12;;;;;;;75.30;51.80;;;16.70;72.80;;;;;;4923765;28;90894;-48
2022/12/24 02:04:48;;;;;;;76.07;51.30;;;16.60;72.70;;;;;;4922463;28;92486;-51
2022/12/24 02:07:14;;;;;;;76.10;50.92;;;16.60;72.70;;;;;;4927702;28;90814;-49
2022/12/24 02:09:40;;;;;;;76.03;52.17;;;16.60;72.70;;;;;;4921121;28;90069;-49
2022/12/24 02:12:06;;;;;;;77.10;51.92;;;16.60;72.70;;;;;;4923298;28;90832;-46
2022/12/24 02:14:33;;;;;;;77.60;51.13;;;16.60;72.80;;;;;;4925169;28;90099;-48
2022/12/24 02:17:32;;;;;;;77.20;52.05;;;16.60;72.70;;;;;;4933256;28;92233;-48
2022/12/24 02:20:27;;;;;;;75.50;51.30;;;16.60;72.80;;;;;;4930135;28;94397;-48
2022/12/24 02:23:49;;;;;;;74.65;52.20;;;16.50;72.80;;;;;;4933636;28;90255;-48
2022/12/24 02:26:33;;;;;;;75.65;51.45;;;16.60;72.90;;;;;;4926156;28;89587;-48
2022/12/24 02:29:20;;;;;;;75.97;51.58;;;16.50;72.80;;;;;;4930103;28;89910;-50
2022/12/24 02:31:51;;;;;;;75.22;51.78;;;16.50;72.70;;;;;;4922600;28;89995;-48
2022/12/24 02:34:27;;;;;;;72.93;51.35;;;16.50;72.90;;;;;;4918094;28;92719;-48
2022/12/24 02:36:59;;;;;;;75.57;51.58;;;16.50;72.80;;;;;;4928406;28;96207;-51
2022/12/24 02:39:36;;;;;;;73.68;51.35;;;16.50;72.70;;;;;;4914737;28;93996;-52
2022/12/24 02:42:06;;;;;;;75.60;51.53;;;16.50;72.70;;;;;;4923759;28;89811;-48
2022/12/24 02:44:55;;;;;;;77.20;51.80;;;16.50;72.70;;;;;;4921329;28;89599;-51
2022/12/24 02:47:24;;;;;;;73.40;51.75;;;16.50;72.70;;;;;;4919036;28;92110;-47
2022/12/24 02:49:50;;;;;;;73.68;51.80;;;16.50;72.70;;;;;;4930032;28;91032;-48
2022/12/24 02:52:37;;;;;;;76.68;51.53;;;16.50;72.80;;;;;;4926527;28;90021;-53
2022/12/24 02:55:18;;;;;;;73.78;51.58;;;16.50;72.70;;;;;;4926479;28;90237;-48
2022/12/24 02:58:05;;;;;;;73.18;51.30;;;16.50;72.80;;;;;;4926342;28;91253;-51
2022/12/24 03:01:15;;;;;;;74.70;51.38;;;16.50;72.80;;;;;;4921228;28;90059;-49
2022/12/24 03:03:41;;;;;;;74.25;51.95;;;16.40;72.80;;;;;;4923995;28;89576;-51
2022/12/24 03:06:26;;;;;;;76.30;51.65;;;16.40;72.70;;;;;;4923036;28;89154;-51
2022/12/24 03:09:19;;;;;;;73.47;51.67;;;16.50;72.80;;;;;;4917049;28;90427;-49
2022/12/24 03:11:54;;;;;;;75.65;51.58;;;16.50;72.80;;;;;;4918562;28;94179;-49
2022/12/24 03:14:21;;;;;;;75.30;51.70;;;16.40;72.70;;;;;;4915493;28;91320;-46
2022/12/24 03:16:48;;;;;;;73.55;51.53;;;16.40;72.80;;;;;;4911485;28;89734;-49
2022/12/24 03:19:15;;;;;;;75.65;51.88;;;16.40;72.80;;;;;;4924076;28;89911;-53
2022/12/24 03:21:41;;;;;;;74.47;51.40;;;16.40;73.50;;;;;;4926130;28;94112;-48
2022/12/24 03:24:09;;;;;;;76.97;51.92;;;16.40;72.70;;;;;;4913237;28;90150;-47
2022/12/24 03:26:36;;;;;;;77.60;51.75;;;16.40;72.80;;;;;;4916345;28;93584;-51
2022/12/24 03:29:06;;;;;;;76.30;51.40;;;16.40;72.80;;;;;;4920623;28;90073;-47
2022/12/24 03:31:49;;;;;;;73.70;51.60;;;16.40;72.80;;;;;;4921699;28;91010;-49
2022/12/24 03:34:15;;;;;;;74.30;51.13;;;16.30;72.70;;;;;;4922879;28;90157;-52
2022/12/24 03:36:42;;;;;;;75.38;51.67;;;16.30;72.80;;;;;;4919971;28;93134;-48
2022/12/24 03:39:08;;;;;;;75.82;51.50;;;16.30;72.70;;;;;;4922309;28;90977;-46
2022/12/24 03:41:35;;;;;;;74.03;51.72;;;16.30;72.80;;;;;;4927564;28;91427;-48
2022/12/24 03:44:01;;;;;;;74.05;51.30;;;16.30;72.70;;;;;;4926710;28;90378;-48
2022/12/24 03:46:27;;;;;;;74.22;51.10;;;16.30;72.80;;;;;;4923842;28;95393;-51
2022/12/24 03:48:53;;;;;;;75.78;51.28;;;16.30;72.90;;;;;;4921968;28;91008;-48
2022/12/24 03:51:21;;;;;;;76.18;51.22;;;16.30;72.80;;;;;;4924071;28;90577;-51
2022/12/24 03:53:48;;;;;;;74.43;51.67;;;16.30;72.80;;;;;;4925899;28;90694;-49
2022/12/24 03:56:14;;;;;;;75.63;51.50;;;16.30;72.80;;;;;;4927695;28;90444;-49
2022/12/24 03:58:39;;;;;;;74.38;51.15;;;16.30;72.70;;;;;;4919111;28;90279;-49
2022/12/24 04:01:05;;;;;;;73.07;50.78;;;16.30;72.80;;;;;;4926149;28;89782;-48
2022/12/24 04:03:31;;;;;;;75.32;51.65;;;16.20;72.80;;;;;;4920143;28;92692;-53
2022/12/24 04:06:00;;;;;;;76.03;51.50;;;16.30;72.80;;;;;;4909435;28;91206;-50
2022/12/24 04:08:26;;;;;;;74.95;50.75;;;16.20;72.70;;;;;;4926792;28;91659;-50
2022/12/24 04:10:51;;;;;;;73.45;50.60;;;16.20;72.80;;;;;;4930666;28;90998;-48
2022/12/24 04:13:17;;;;;;;74.38;51.17;;;16.30;72.70;;;;;;4918869;28;89942;-49
2022/12/24 04:15:43;;;;;;;72.45;51.40;;;16.20;72.70;;;;;;4923906;28;91107;-48
2022/12/24 04:18:08;;;;;;;77.15;51.33;;;16.20;72.80;;;;;;4924088;28;89834;-48
2022/12/24 04:20:34;;;;;;;76.88;51.45;;;16.20;72.80;;;;;;4926461;28;91049;-47
2022/12/24 04:22:59;;;;;;;74.18;51.58;;;16.20;72.70;;;;;;4928596;28;90619;-52
2022/12/24 04:25:25;;;;;;;75.15;51.72;;;16.20;72.80;;;;;;4927527;28;91778;-49
2022/12/24 04:27:51;;;;;;;74.97;51.55;;;16.20;72.80;;;;;;4914958;28;91258;-47
2022/12/24 04:30:16;;;;;;;73.72;51.47;;;16.20;72.80;;;;;;4917712;28;91384;-48
2022/12/24 04:32:42;;;;;;;75.40;51.22;;;16.20;72.80;;;;;;4924752;28;95143;-46
2022/12/24 04:35:08;;;;;;;74.97;51.20;;;16.20;72.80;;;;;;4932684;28;89918;-48
2022/12/24 04:37:34;;;;;;;77.93;51.65;;;16.20;72.80;;;;;;4922208;28;93250;-50
2022/12/24 04:39:59;;;;;;;74.28;51.58;;;16.20;72.80;;;;;;4935203;28;90073;-47
2022/12/24 04:42:25;;;;;;;73.75;51.78;;;16.10;72.70;;;;;;4928741;28;93311;-46
2022/12/24 04:44:51;;;;;;;74.20;51.47;;;16.20;72.80;;;;;;4933444;28;89161;-49
2022/12/24 04:47:16;;;;;;;71.90;51.42;;;16.10;72.70;;;;;;4927755;28;92722;-47
2022/12/24 04:49:42;;;;;;;73.00;50.92;;;16.10;72.80;;;;;;4931898;28;90396;-47
2022/12/24 04:52:08;;;;;;;78.70;51.83;;;16.10;72.70;;;;;;4930468;28;91038;-49
2022/12/24 04:54:33;;;;;;;74.18;51.38;;;16.10;72.80;;;;;;4918047;28;93655;-47
2022/12/24 04:56:59;;;;;;;72.35;51.08;;;16.10;72.80;;;;;;4921232;28;92027;-51
2022/12/24 04:59:25;;;;;;;75.35;51.00;;;16.10;72.70;;;;;;4929224;28;89904;-47
2022/12/24 05:01:51;;;;;;;74.22;51.45;;;16.10;72.70;;;;;;4927120;28;90248;-51
2022/12/24 05:04:16;;;;;;;77.15;51.45;;;16.10;72.70;;;;;;4919401;28;89955;-50
2022/12/24 05:06:42;;;;;;;75.95;51.40;;;16.10;72.80;;;;;;4937607;28;91240;-52
2022/12/24 05:09:07;;;;;;;74.85;51.70;;;16.10;72.70;;;;;;4922444;28;90272;-50
2022/12/24 05:11:33;;;;;;;76.30;51.13;;;16.10;72.80;;;;;;4920526;28;90705;-49
2022/12/24 05:13:59;;;;;;;74.38;51.25;;;16.10;72.70;;;;;;4926238;28;89622;-50
2022/12/24 05:16:24;;;;;;;76.47;51.60;;;16.10;72.70;;;;;;4917574;28;93634;-50
2022/12/24 05:18:51;;;;;;;75.28;51.08;;;16.10;72.70;;;;;;4929355;28;90688;-49
2022/12/24 05:21:20;;;;;;;75.97;51.78;;;16.10;72.70;;;;;;4931088;28;90138;-49
2022/12/24 05:26:35;;;;;;;73.15;51.35;;;16.10;72.70;;;;;;4923888;28;90675;-54
2022/12/24 05:29:03;;;;;;;75.40;51.50;;;16.10;72.70;;;;;;4920274;28;91940;-49
2022/12/24 05:31:30;;;;;;;75.85;51.10;;;16.00;72.60;;;;;;4932833;28;90418;-47
2022/12/24 05:33:56;;;;;;;74.00;51.30;;;16.10;72.70;;;;;;4923586;28;89039;-50
2022/12/24 05:36:22;;;;;;;75.88;51.45;;;16.10;72.70;;;;;;4925902;28;90362;-50
2022/12/24 05:38:49;;;;;;;75.60;51.53;;;16.10;72.70;;;;;;4920613;28;90867;-49
2022/12/24 05:41:14;;;;;;;75.70;51.08;;;16.00;72.70;;;;;;4932341;28;92657;-52
2022/12/24 05:43:40;;;;;;;75.20;51.67;;;16.00;72.60;;;;;;4935343;28;89523;-51
2022/12/24 05:46:08;;;;;;;73.32;51.78;;;16.00;72.60;;;;;;4925546;28;89591;-50
2022/12/24 05:48:34;;;;;;;73.07;51.08;;;16.00;72.70;;;;;;4929162;28;91501;-49
2022/12/24 05:51:05;;;;;;;73.18;51.22;;;16.00;72.70;;;;;;4932588;28;89481;-50
2022/12/24 05:53:31;;;;;;;72.22;51.40;;;16.00;72.60;;;;;;4928934;28;90068;-49
2022/12/24 05:56:06;;;;;;;74.78;51.65;;;16.00;72.60;;;;;;4927704;28;93299;-46
2022/12/24 05:58:32;;;;;;;73.97;51.65;;;16.00;72.70;;;;;;4922850;28;90896;-50
2022/12/24 06:00:59;;;;;;;75.72;51.20;;;16.00;72.60;;;;;;4920285;28;90474;-51
2022/12/24 06:03:24;;;;;;;74.75;51.35;;;16.00;72.50;;;;;;4935572;28;90880;-48
2022/12/24 06:06:01;;;;;;;74.55;51.42;;;16.00;72.80;;;;;;4934923;28;90609;-48
2022/12/24 06:08:28;;;;;;;74.85;52.47;;;16.00;72.70;;;;;;4926891;28;91551;-48
2022/12/24 06:10:59;;;;;;;81.95;51.70;;;16.00;72.70;;;;;;4930665;28;89739;-50
2022/12/24 06:13:25;;;;;;;75.05;51.42;;;16.00;72.70;;;;;;4919474;28;90378;-48
2022/12/24 06:15:54;;;;;;;79.32;51.55;;;16.00;72.60;;;;;;4926029;28;91374;-47
2022/12/24 06:18:20;;;;;;;73.55;51.45;;;16.00;72.70;;;;;;4920063;28;89928;-51
2022/12/24 06:20:53;;;;;;;75.70;51.30;;;16.00;72.60;;;;;;4933874;28;90176;-47
2022/12/24 06:23:19;;;;;;;75.63;51.50;;;16.00;72.60;;;;;;4922043;28;90114;-47
2022/12/24 06:25:45;;;;;;;74.18;51.47;;;16.00;73.30;;;;;;4911761;28;94474;-49
2022/12/24 06:28:11;;;;;;;76.75;51.88;;;16.00;72.60;;;;;;4926694;28;90312;-48
2022/12/24 06:30:37;;;;;;;73.25;50.92;;;15.90;72.60;;;;;;4924474;28;92806;-50
2022/12/24 06:33:02;;;;;;;74.03;51.42;;;15.90;72.60;;;;;;4918921;28;90059;-48
2022/12/24 06:35:30;;;;;;;78.65;51.63;;;15.90;72.50;;;;;;4922332;28;89795;-46
2022/12/24 06:37:56;;;;;;;74.57;51.40;;;15.90;72.60;;;;;;4921509;28;92732;-50
2022/12/24 06:40:22;;;;;;;75.70;51.42;;;15.90;72.60;;;;;;4924858;28;91069;-47
2022/12/24 06:42:47;;;;;;;78.60;51.75;;;15.90;72.50;;;;;;4928707;28;89924;-47
2022/12/24 06:45:13;;;;;;;73.43;51.20;;;15.90;72.60;;;;;;4913074;28;92983;-50
2022/12/24 06:47:38;;;;;;;74.18;51.28;;;15.90;72.70;;;;;;4920693;28;89867;-50
2022/12/24 06:50:05;;;;;;;74.50;51.25;;;15.90;72.70;;;;;;4922496;28;90556;-50
2022/12/24 06:52:30;;;;;;;74.78;50.88;;;15.90;72.70;;;;;;4920393;28;91589;-49
2022/12/24 06:54:56;;;;;;;75.28;51.92;;;15.90;72.60;;;;;;4917173;28;91800;-47
2022/12/24 06:57:22;;;;;;;72.93;50.88;;;15.90;72.60;;;;;;4927283;28;90951;-48
2022/12/24 06:59:47;;;;;;;77.57;51.83;;;15.90;72.80;;;;;;4934054;28;89748;-48
2022/12/24 07:02:13;;;;;;;80.18;51.58;;;15.90;72.70;;;;;;4912233;28;95303;-47
2022/12/24 07:04:39;;;;;;;76.43;52.30;;;15.90;72.50;;;;;;4918096;28;90230;-46
2022/12/24 07:07:04;;;;;;;76.07;51.60;;;15.90;72.60;;;;;;4925902;28;90925;-49
2022/12/24 07:09:30;;;;;;;77.97;52.05;;;15.90;72.70;;;;;;4913464;28;90753;-49
2022/12/24 07:11:56;;;;;;;72.82;51.45;;;16.00;72.50;;;;;;4920507;28;90100;-51
2022/12/24 07:14:21;;;;;;;78.35;51.78;;;16.00;72.40;;;;;;4917985;28;91923;-46
2022/12/24 07:16:48;;;;;;;75.07;51.53;;;16.00;72.50;;;;;;4928288;28;91061;-47
2022/12/24 07:19:14;;;;;;;74.35;51.72;;;16.00;72.60;;;;;;4922210;28;91992;-49
2022/12/24 07:21:40;;;;;;;75.43;52.20;;;16.00;72.70;;;;;;4923092;28;90055;-51
2022/12/24 07:24:06;;;;;;;73.03;51.25;;;16.00;72.80;;;;;;4928942;28;90689;-47
2022/12/24 07:26:32;;;;;;;76.47;51.45;;;16.00;72.70;;;;;;4924460;28;90798;-46
2022/12/24 07:28:57;;;;;;;75.88;51.85;;;16.00;72.80;;;;;;4919849;28;90412;-47
2022/12/24 07:31:23;;;;;;;75.00;51.60;;;16.00;72.80;;;;;;4925827;28;89912;-50
2022/12/24 07:33:49;;;;;;;81.38;51.22;;;16.00;72.70;;;;;;4929909;28;90686;-46
2022/12/24 07:36:20;;;;;;;73.85;51.80;;;15.90;72.70;;;;;;4927027;28;90473;-48
2022/12/24 07:38:46;;;;;;;74.53;51.40;;;15.90;72.70;;;;;;4931961;28;92613;-46
2022/12/24 07:41:11;;;;;;;78.22;51.83;;;15.90;72.60;;;;;;4921572;28;90263;-50
2022/12/24 07:43:37;;;;;;;77.82;51.47;;;15.90;72.60;;;;;;4926556;28;91046;-47
2022/12/24 07:46:02;;;;;;;73.75;51.13;;;16.00;72.70;;;;;;4919926;28;90654;-46
2022/12/24 07:48:29;;;;;;;76.15;51.55;;;15.90;72.60;;;;;;4923677;28;89866;-46
2022/12/24 07:50:56;;;;;;;75.03;51.83;;;15.90;72.70;;;;;;4929190;28;91025;-49
2022/12/24 07:53:22;;;;;;;73.50;51.28;;;15.90;72.70;;;;;;4910014;28;91679;-51
2022/12/24 07:55:47;;;;;;;82.55;51.50;;;15.90;72.70;;;;;;4924596;28;92705;-49
2022/12/24 07:58:13;;;;;;;75.20;51.33;;;15.90;72.90;;;;;;4912326;28;93078;-51
2022/12/24 08:00:39;;;;;;;76.80;51.55;;;15.90;73.60;;;;;;4915694;28;89892;-47
2022/12/24 08:03:04;;;;;;;76.82;51.45;;;15.90;73.70;;;;;;4917834;28;91167;-47
2022/12/24 08:05:35;;;;;;;78.57;51.88;;;16.00;73.30;;;;;;4916088;28;92085;-49
2022/12/24 08:08:01;;;;;;;73.82;51.25;;;16.00;73.50;;;;;;4912863;28;95007;-49
2022/12/24 08:10:26;;;;;;;73.95;51.72;;;16.00;74.00;;;;;;4908399;28;90503;-50
2022/12/24 08:12:52;;;;;;;74.68;51.45;;;15.90;74.20;;;;;;4912118;28;92672;-47
2022/12/24 08:15:18;;;;;;;72.18;51.25;;;15.90;74.30;;;;;;4913235;28;92179;-48
2022/12/24 08:17:44;;;;;;;81.55;51.42;;;15.90;74.50;;;;;;4921682;28;91406;-48
2022/12/24 08:20:10;;;;;;;75.28;51.03;;;15.90;75.40;;;;;;4914665;28;95284;-49
2022/12/24 08:22:36;;;;;;;78.63;51.42;;;15.90;74.90;;;;;;4906058;28;91320;-47
2022/12/24 08:25:02;;;;;;;75.32;51.38;;;16.00;74.40;;;;;;4923920;28;90803;-47
2022/12/24 08:27:27;;;;;;;81.65;51.30;;;16.00;74.50;;;;;;4929839;28;89779;-47
2022/12/24 08:29:53;;;;;;;75.30;50.92;;;16.00;74.30;;;;;;4927009;28;90830;-51
2022/12/24 08:32:18;;;;;;;78.03;51.58;;;16.00;74.00;;;;;;4928841;28;90867;-49
2022/12/24 08:34:44;;;;;;;74.55;51.38;;;16.00;74.10;;;;;;4931729;28;89848;-50
2022/12/24 08:37:10;;;;;;;75.63;51.47;;;16.00;73.90;;;;;;4924237;28;90394;-45
2022/12/24 08:39:35;;;;;;;76.72;51.28;;;16.00;73.80;;;;;;4922190;28;91269;-48
2022/12/24 08:42:01;;;;;;;74.60;51.47;;;16.00;73.80;;;;;;4921089;28;95139;-48
2022/12/24 08:44:26;;;;;;;77.32;51.63;;;16.00;73.60;;;;;;4932102;28;90142;-47
2022/12/24 08:46:52;;;;;;;77.07;51.53;;;16.00;73.50;;;;;;4924395;28;95150;-49
2022/12/24 08:49:18;;;;;;;80.10;51.45;;;16.00;73.50;;;;;;4912016;28;89448;-46
2022/12/24 08:51:43;;;;;;;77.68;51.47;;;16.00;73.40;;;;;;4929573;28;90754;-47
2022/12/24 08:54:09;;;;;;;78.20;51.58;;;16.00;73.60;;;;;;4929430;28;90046;-49
2022/12/24 08:56:35;;;;;;;77.20;51.55;;;16.00;73.60;;;;;;4929169;28;90979;-46
2022/12/24 08:59:01;;;;;;;73.97;51.00;;;16.00;73.40;;;;;;4923075;28;90468;-47
2022/12/24 09:01:26;;;;;;;74.75;51.53;;;16.00;73.30;;;;;;4916570;28;95399;-50
2022/12/24 09:03:52;;;;;;;77.13;51.47;;;16.00;73.30;;;;;;4919685;28;91600;-51
2022/12/24 09:06:18;;;;;;;76.97;52.17;;;16.00;73.10;;;;;;4923708;28;90196;-50
2022/12/24 09:08:43;;;;;;;77.28;51.65;;;16.00;73.10;;;;;;4914012;28;92920;-46
2022/12/24 09:11:13;;;;;;;76.68;51.47;;;15.90;73.10;;;;;;4916498;28;90077;-49
2022/12/24 09:13:39;;;;;;;79.53;51.33;;;15.90;73.10;;;;;;4918669;28;90993;-50
2022/12/24 09:16:05;;;;;;;77.43;51.72;;;16.00;73.00;;;;;;4920795;28;89873;-46
2022/12/24 09:18:31;;;;;;;76.00;51.60;;;15.90;72.90;;;;;;4918118;28;91405;-47
2022/12/24 09:20:59;;;;;;;74.30;51.17;;;15.90;72.90;;;;;;4926056;28;91029;-46
2022/12/24 09:23:25;;;;;;;77.45;51.60;;;15.90;73.00;;;;;;4920305;28;91523;-49
2022/12/24 09:25:51;;;;;;;79.30;51.90;;;15.90;72.90;;;;;;4919909;28;91831;-48
2022/12/24 09:28:16;;;;;;;75.13;51.40;;;16.00;73.10;;;;;;4919434;28;91181;-50
2022/12/24 09:30:42;;;;;;;74.60;51.60;;;16.00;72.80;;;;;;4931855;28;91217;-52
2022/12/24 09:33:08;;;;;;;78.05;51.17;;;16.00;73.00;;;;;;4923246;28;90909;-51
2022/12/24 09:35:36;;;;;;;76.53;52.00;;;16.00;73.10;;;;;;4915335;28;90319;-52
2022/12/24 09:38:02;;;;;;;75.22;51.55;;;16.00;73.20;;;;;;4923829;28;89265;-47
2022/12/24 09:40:38;;;;;;;77.78;51.90;;;16.00;73.00;;;;;;4922714;28;90133;-49
2022/12/24 09:43:12;;;;;;;76.22;51.78;;;16.00;72.80;;;;;;4922407;28;92126;-49
2022/12/24 09:45:44;;;;;;;78.72;51.65;;;16.00;72.80;;;;;;4921479;28;90957;-50
2022/12/24 09:48:20;;;;;;;74.65;52.10;;;16.00;72.90;;;;;;4923501;28;89976;-49
2022/12/24 09:50:54;;;;;;;78.80;51.63;;;16.10;73.10;;;;;;4920189;28;90475;-48
2022/12/24 09:53:28;;;;;;;72.78;51.50;;;16.00;72.90;;;;;;4922362;28;93527;-52
2022/12/24 09:55:58;;;;;;;76.35;51.90;;;16.00;73.10;;;;;;4918951;28;91508;-49
2022/12/24 09:58:29;;;;;;;74.38;51.58;;;16.00;72.90;;;;;;4918105;28;89844;-49
2022/12/24 10:00:55;;;;;;;81.05;52.65;;;16.10;73.20;;;;;;4916807;28;95497;-48
2022/12/24 10:03:21;;;;;;;76.78;52.15;;;16.10;73.10;;;;;;4925302;28;90624;-46
2022/12/24 10:06:13;;;;;;;74.43;50.90;;;16.10;73.50;;;;;;4919700;28;90931;-48
2022/12/24 10:09:13;;;;;;;75.35;52.28;;;16.00;73.40;;;;;;4922764;28;90939;-49
2022/12/24 10:11:49;;;;;;;76.00;52.00;;;16.00;73.90;;;;;;4916084;28;97447;-49
2022/12/24 10:14:51;;;;;;;75.95;51.58;;;15.90;73.50;;;;;;4916442;28;92023;-51
2022/12/24 10:17:25;;;;;;;81.32;51.97;;;15.90;73.60;;;;;;4919781;28;91627;-48
2022/12/24 10:20:29;;;;;;;73.95;51.58;;;15.90;73.50;;;;;;4919495;28;91122;-47
2022/12/24 10:23:11;;;;;;;72.55;50.72;;;15.90;73.40;;;;;;4918581;28;92113;-46
2022/12/24 10:25:47;;;;;;;83.10;52.30;;;16.00;73.40;;;;;;4922672;28;90524;-48
2022/12/24 10:28:20;;;;;;;76.05;51.45;;;16.00;73.70;;;;;;4924410;28;92343;-49
2022/12/24 10:30:49;;;;;;;83.35;51.88;;;16.00;73.90;;;;;;4916345;28;89480;-48
2022/12/24 10:33:34;;;;;;;77.57;51.85;;;16.00;73.70;;;;;;4922903;28;89864;-52
2022/12/24 10:36:00;;;;;;;77.65;52.28;;;16.00;73.70;;;;;;4921216;28;92993;-48
2022/12/24 10:38:26;;;;;;;79.05;51.85;;;16.00;73.50;;;;;;4924745;28;91262;-50
2022/12/24 10:40:55;;;;;;;79.55;52.08;;;16.00;73.50;;;;;;4913996;28;89932;-46
2022/12/24 10:43:24;;;;;;;77.65;52.50;;;16.00;73.30;;;;;;4920177;28;91438;-49
2022/12/24 10:46:05;;;;;;;77.45;52.45;;;16.00;73.30;;;;;;4920243;28;93031;-53
2022/12/24 10:48:40;;;;;;;81.65;53.78;;;16.10;73.70;;;;;;4920308;28;89908;-48
2022/12/24 10:51:51;;;;;;;80.00;53.40;;;16.10;73.60;;;;;;4931478;28;89938;-48
2022/12/24 10:54:19;;;;;;;84.82;55.38;;;16.20;73.50;;;;;;4922339;28;90801;-46
2022/12/24 10:56:51;;;;;;;81.78;54.80;;;16.30;73.60;;;;;;4918793;28;94966;-49
2022/12/24 10:59:27;;;;;;;83.40;56.20;;;16.40;74.30;;;;;;4920276;28;91280;-48
2022/12/24 11:01:55;;;;;;;83.85;55.78;;;16.50;75.40;;;;;;4917865;28;89909;-46
2022/12/24 11:04:24;;;;;;;85.60;56.85;;;16.50;74.60;;;;;;4918817;28;93991;-50
2022/12/24 11:07:04;;;;;;;84.15;55.05;;;16.60;74.20;;;;;;4921777;28;92161;-50
2022/12/24 11:09:33;;;;;;;85.80;56.65;;;16.60;74.00;;;;;;4920828;28;91308;-49
2022/12/24 11:12:02;;;;;;;91.65;61.08;;;16.60;73.90;;;;;;4922306;28;90106;-48
2022/12/24 11:14:33;;;;;;;86.20;57.85;;;16.60;74.60;;;;;;4920364;28;90985;-48
2022/12/24 11:16:59;;;;;;;;;;;16.70;73.90;;;;;;4906084;28;90931;-47
2022/12/24 11:19:33;;;;;;;84.60;58.35;;;16.90;73.50;;;;;;4926074;28;89783;-47
2022/12/24 11:22:06;;;;;;;89.30;58.22;;;16.90;73.10;;;;;;4927278;28;92164;-50
2022/12/24 11:24:35;;;;;;;82.15;56.13;;;16.90;72.90;;;;;;4918525;28;92222;-50
2022/12/24 11:27:32;;;;;;;83.75;56.05;;;16.90;72.80;;;;;;4926798;28;90570;-48
2022/12/24 11:30:16;;;;;;;88.55;56.35;;;17.00;72.80;;;;;;4915686;28;91793;-49
2022/12/24 11:32:44;;;;;;;89.78;60.22;;;17.00;72.50;;;;;;4919129;28;90001;-47
2022/12/24 11:35:22;;;;;;;90.68;59.05;;;17.00;72.30;;;;;;4930430;28;90192;-48
2022/12/24 11:38:10;;;;;;;87.13;58.95;;;17.00;72.20;;;;;;4923600;28;91184;-46
2022/12/24 11:40:38;;;;;;;83.47;57.33;;;17.10;72.20;;;;;;4926856;28;90285;-47
2022/12/24 11:43:05;;;;;;;85.57;57.28;;;17.20;72.00;;;;;;4916707;28;90179;-52
2022/12/24 11:45:33;;;;;;;89.60;57.63;;;17.20;71.50;;;;;;4910297;28;90811;-49
2022/12/24 11:47:59;;;;;;;89.25;58.15;;;17.30;71.50;;;;;;4917259;28;89669;-46
2022/12/24 11:50:34;;;;;;;89.03;57.28;;;17.30;71.20;;;;;;4925623;28;90318;-49
2022/12/24 11:53:02;;;;;;;84.75;56.50;;;17.40;71.20;;;;;;4919893;28;89708;-45
2022/12/24 11:55:37;;;;;;;86.90;56.28;;;17.40;71.00;;;;;;4910234;28;91100;-47
2022/12/24 11:58:26;;;;;;;88.07;56.70;;;17.40;71.20;;;;;;4922273;28;91649;-46
2022/12/24 12:01:17;;;;;;;86.50;56.30;;;17.40;71.40;;;;;;4915381;28;92563;-51
2022/12/24 12:03:48;;;;;;;88.05;56.00;;;17.40;71.40;;;;;;4916320;28;91547;-48
2022/12/24 12:06:38;;;;;;;86.05;56.53;;;17.50;71.50;;;;;;4914814;28;89670;-47
2022/12/24 12:09:22;;;;;;;80.82;55.15;;;17.50;71.50;;;;;;4924721;28;91293;-50
2022/12/24 12:11:54;;;;;;;86.47;55.58;;;17.60;72.00;;;;;;4919875;28;91078;-50
2022/12/24 12:14:36;;;;;;;;;;;17.70;72.20;;;;;;4936176;28;90251;-51
2022/12/24 12:17:04;;;;;;;;;;;17.70;72.00;;;;;;4928350;28;91078;-48
2022/12/24 12:19:44;;;;;;;82.13;55.38;;;17.80;72.10;;;;;;4923397;28;94994;-53
2022/12/24 12:22:34;;;;;;;84.53;55.53;;;17.80;71.90;;;;;;4921679;28;91320;-50
2022/12/24 12:25:04;;;;;;;84.47;55.53;;;17.80;71.60;;;;;;4919314;28;91372;-53
2022/12/24 12:27:30;;;;;;;83.60;55.40;;;17.90;72.00;;;;;;4913744;28;93923;-52
2022/12/24 12:30:05;;;;;;;86.45;55.85;;;17.90;71.50;;;;;;4928177;28;89916;-52
2022/12/24 12:32:54;;;;;;;85.88;55.10;;;18.00;72.00;;;;;;4922758;28;90350;-51
2022/12/24 12:35:37;;;;;;;85.45;55.75;;;18.00;72.50;;;;;;4925091;28;91127;-52
2022/12/24 12:38:18;;;;;;;83.78;55.53;;;17.90;72.20;;;;;;4929741;28;91024;-52
2022/12/24 12:40:43;;;;;;;84.75;55.72;;;17.80;72.80;;;;;;4925180;28;88929;-49
2022/12/24 12:43:37;;;;;;;84.82;55.33;;;17.60;73.10;;;;;;4928184;28;91185;-50
2022/12/24 12:46:48;;;;;;;83.38;55.20;;;17.50;73.30;;;;;;4919678;28;93129;-51
2022/12/24 12:49:27;;;;;;;83.85;55.75;;;17.50;73.30;;;;;;4921476;28;92893;-48
2022/12/24 12:52:01;;;;;;;79.80;54.95;;;17.40;73.30;;;;;;4917488;28;89994;-53